createdAt,value
2019-04-30T00:01:14.704Z,100452.75
2019-04-30T00:03:55.745Z,100450.08
2019-04-30T00:06:34.426Z,100451.33
2019-04-30T00:09:01.887Z,100448.16
2019-04-30T00:11:36.362Z,100447.21
2019-04-30T00:14:09.193Z,100448.47
2019-04-30T00:16:41.863Z,100449.69
2019-04-30T00:19:15.732Z,100453.06
2019-04-30T00:21:57.099Z,100450.30
2019-04-30T00:24:23.178Z,100444.94
2019-04-30T00:26:56.889Z,100440.45
2019-04-30T00:29:31.004Z,100437.31
2019-04-30T00:32:07.885Z,100433.24
2019-04-30T00:34:40.151Z,100434.88
2019-04-30T00:37:14.007Z,100435.23
2019-04-30T00:39:51.153Z,100434.20
2019-04-30T00:42:24.285Z,100431.05
2019-04-30T00:44:59.570Z,100434.55
2019-04-30T00:47:30.084Z,100437.59
2019-04-30T00:50:02.777Z,100444.06
2019-04-30T00:52:37.376Z,100433.59
2019-04-30T00:55:11.497Z,100426.47
2019-04-30T00:57:47.391Z,100433.80
2019-04-30T01:00:25.999Z,100430.21
2019-04-30T01:03:09.267Z,100439.31
2019-04-30T01:05:43.864Z,100434.53
2019-04-30T01:08:15.421Z,100440.60
2019-04-30T01:10:48.376Z,100432.39
2019-04-30T01:13:21.149Z,100431.99
2019-04-30T01:15:53.833Z,100431.52
2019-04-30T01:18:28.604Z,100435.02
2019-04-30T01:21:02.887Z,100431.52
2019-04-30T01:23:35.241Z,100435.38
2019-04-30T01:26:08.802Z,100435.31
2019-04-30T01:28:41.669Z,100439.30
2019-04-30T01:31:14.306Z,100440.88
2019-04-30T01:33:48.802Z,100443.02
2019-04-30T01:36:21.311Z,100440.70
2019-04-30T01:38:53.977Z,100436.64
2019-04-30T01:41:30.208Z,100445.31
2019-04-30T01:44:03.805Z,100437.33
2019-04-30T01:46:35.243Z,100439.91
2019-04-30T01:49:08.897Z,100442.75
2019-04-30T01:51:41.540Z,100439.22
2019-04-30T01:54:21.139Z,100438.23
2019-04-30T01:56:54.002Z,100429.55
2019-04-30T01:59:29.119Z,100436.91
2019-04-30T02:02:01.815Z,100436.78
2019-04-30T02:04:34.494Z,100438.39
2019-04-30T02:07:08.714Z,100442.11
2019-04-30T02:09:41.494Z,100448.97
2019-04-30T02:12:14.111Z,100450.27
2019-04-30T02:14:46.882Z,100447.97
2019-04-30T02:17:19.520Z,100450.43
2019-04-30T02:19:56.565Z,100443.81
2019-04-30T02:22:26.533Z,100439.77
2019-04-30T02:24:59.241Z,100439.60
2019-04-30T02:27:32.702Z,100444.70
2019-04-30T02:30:11.210Z,100441.44
2019-04-30T02:32:43.178Z,100444.45
2019-04-30T02:35:21.647Z,100446.92
2019-04-30T02:38:10.031Z,100451.63
2019-04-30T02:40:43.139Z,100448.37
2019-04-30T02:43:17.036Z,100453.90
2019-04-30T02:45:51.617Z,100453.22
2019-04-30T02:48:29.256Z,100453.20
2019-04-30T02:51:04.354Z,100450.98
2019-04-30T02:54:00.585Z,100451.22
2019-04-30T02:56:33.922Z,100450.71
2019-04-30T02:59:06.593Z,100450.15
2019-04-30T03:01:40.196Z,100452.70
2019-04-30T03:04:13.487Z,100455.97
2019-04-30T03:06:46.171Z,100455.79
2019-04-30T03:09:20.394Z,100455.26
2019-04-30T03:11:53.169Z,100459.91
2019-04-30T03:14:25.840Z,100460.20
2019-04-30T03:17:00.390Z,100455.69
2019-04-30T03:19:40.528Z,100461.23
2019-04-30T03:22:14.796Z,100461.08
2019-04-30T03:24:50.103Z,100461.84
2019-04-30T03:27:24.491Z,100458.72
2019-04-30T03:29:56.061Z,100463.84
2019-04-30T03:32:31.698Z,100464.61
2019-04-30T03:35:03.700Z,100469.25
2019-04-30T03:37:39.476Z,100469.19
2019-04-30T03:40:13.194Z,100471.32
2019-04-30T03:42:45.905Z,100466.83
2019-04-30T03:45:20.441Z,100469.92
2019-04-30T03:47:53.019Z,100467.69
2019-04-30T03:50:25.723Z,100468.14
2019-04-30T03:53:00.481Z,100467.59
2019-04-30T03:55:32.784Z,100473.22
2019-04-30T03:58:05.454Z,100476.73
2019-04-30T04:00:42.247Z,100477.17
2019-04-30T04:03:14.705Z,100482.48
2019-04-30T04:05:49.767Z,100473.42
2019-04-30T04:08:29.988Z,100484.85
2019-04-30T04:11:04.265Z,100477.18
2019-04-30T04:13:39.911Z,100480.69
2019-04-30T04:16:11.679Z,100473.84
2019-04-30T04:18:44.405Z,100479.28
2019-04-30T04:21:17.324Z,100482.41
2019-04-30T04:23:50.981Z,100481.29
2019-04-30T04:26:23.675Z,100476.28
2019-04-30T04:28:59.177Z,100482.58
2019-04-30T04:31:30.601Z,100487.48
2019-04-30T04:34:03.302Z,100477.66
2019-04-30T04:36:36.133Z,100477.34
2019-04-30T04:39:10.233Z,100477.97
2019-04-30T04:41:44.335Z,100481.77
2019-04-30T04:44:19.684Z,100480.63
2019-04-30T04:46:52.792Z,100482.64
2019-04-30T04:49:25.459Z,100480.51
2019-04-30T04:51:59.299Z,100485.05
2019-04-30T04:54:32.052Z,100480.80
2019-04-30T04:57:16.985Z,100485.22
2019-04-30T04:59:42.533Z,100486.42
2019-04-30T05:02:32.368Z,100488.48
2019-04-30T05:05:04.070Z,100485.63
2019-04-30T05:07:36.739Z,100484.03
2019-04-30T05:10:09.532Z,100497.41
2019-04-30T05:12:42.299Z,100499.00
2019-04-30T05:15:15.081Z,100502.83
2019-04-30T05:17:49.429Z,100493.67
2019-04-30T05:20:22.180Z,100497.34
2019-04-30T05:22:54.871Z,100494.97
2019-04-30T05:25:29.479Z,100498.63
2019-04-30T05:28:02.889Z,100497.55
2019-04-30T05:30:35.606Z,100496.73
2019-04-30T05:33:08.866Z,100493.17
2019-04-30T05:35:41.732Z,100498.70
2019-04-30T05:38:14.413Z,100497.24
2019-04-30T05:40:47.208Z,100500.40
2019-04-30T05:43:19.874Z,100499.38
2019-04-30T05:45:52.499Z,100489.22
2019-04-30T05:48:25.262Z,100499.86
2019-04-30T05:50:59.120Z,100492.16
2019-04-30T05:53:32.227Z,100496.33
2019-04-30T05:56:05.627Z,100497.47
2019-04-30T05:58:39.706Z,100499.67
2019-04-30T06:01:12.838Z,100503.30
2019-04-30T06:03:45.530Z,100497.44
2019-04-30T06:06:19.537Z,100502.05
2019-04-30T06:09:04.066Z,100499.68
2019-04-30T06:11:29.999Z,100502.20
2019-04-30T06:14:20.405Z,100501.52
2019-04-30T06:17:06.908Z,100501.75
2019-04-30T06:19:39.584Z,100502.10
2019-04-30T06:22:12.469Z,100507.28
2019-04-30T06:24:45.244Z,100505.79
2019-04-30T06:27:19.165Z,100505.66
2019-04-30T06:29:52.139Z,100502.36
2019-04-30T06:32:24.905Z,100507.42
2019-04-30T06:34:59.299Z,100503.86
2019-04-30T06:37:32.219Z,100504.98
2019-04-30T06:40:09.364Z,100510.34
2019-04-30T06:42:42.599Z,100507.42
2019-04-30T06:45:16.501Z,100510.20
2019-04-30T06:47:49.702Z,100512.47
2019-04-30T06:50:23.000Z,100500.86
2019-04-30T06:52:58.785Z,100501.33
2019-04-30T06:55:30.954Z,100502.69
2019-04-30T06:58:14.160Z,100498.44
2019-04-30T07:00:40.533Z,100502.52
2019-04-30T07:03:13.354Z,100502.95
2019-04-30T07:05:46.021Z,100508.70
2019-04-30T07:08:40.504Z,100504.76
2019-04-30T07:11:15.649Z,100508.77
2019-04-30T07:13:52.312Z,100510.05
2019-04-30T07:16:24.636Z,100503.51
2019-04-30T07:18:58.614Z,100513.31
2019-04-30T07:21:31.811Z,100509.41
2019-04-30T07:24:04.896Z,100509.34
2019-04-30T07:26:38.884Z,100517.83
2019-04-30T07:29:11.834Z,100514.74
2019-04-30T07:31:44.557Z,100521.37
2019-04-30T07:34:19.492Z,100507.29
2019-04-30T07:39:29.289Z,100508.58
2019-04-30T07:42:00.900Z,100515.14
2019-04-30T07:44:36.613Z,100516.47
2019-04-30T07:47:09.648Z,100515.47
2019-04-30T07:49:51.572Z,100510.89
2019-04-30T07:52:17.179Z,100509.51
2019-04-30T07:54:51.873Z,100504.02
2019-04-30T07:57:24.405Z,100502.73
2019-04-30T07:59:57.144Z,100510.77
2019-04-30T08:02:38.020Z,100513.34
2019-04-30T08:05:10.612Z,100509.92
2019-04-30T08:07:43.442Z,100516.02
2019-04-30T08:10:18.644Z,100506.88
2019-04-30T08:12:51.853Z,100503.36
2019-04-30T08:15:25.188Z,100501.73
2019-04-30T08:18:03.486Z,100502.50
2019-04-30T08:20:34.801Z,100500.18
2019-04-30T08:23:20.157Z,100506.04
2019-04-30T08:25:42.457Z,100506.88
2019-04-30T08:28:15.140Z,100510.00
2019-04-30T08:30:48.965Z,100512.38
2019-04-30T08:33:21.944Z,100513.17
2019-04-30T08:35:54.722Z,100519.95
2019-04-30T08:38:27.396Z,100510.58
2019-04-30T08:41:00.808Z,100511.94
2019-04-30T08:43:33.875Z,100508.66
2019-04-30T08:46:06.674Z,100506.16
2019-04-30T08:48:47.921Z,100503.45
2019-04-30T08:51:14.355Z,100504.19
2019-04-30T08:53:48.651Z,100500.72
2019-04-30T08:56:23.629Z,100502.19
2019-04-30T08:58:56.403Z,100504.91
2019-04-30T09:01:29.544Z,100503.91
2019-04-30T09:04:02.373Z,100498.38
2019-04-30T09:06:35.070Z,100494.97
2019-04-30T09:09:11.125Z,100504.02
2019-04-30T09:11:54.753Z,100491.30
2019-04-30T09:14:18.675Z,100496.34
2019-04-30T09:16:51.623Z,100493.64
2019-04-30T09:19:24.299Z,100497.75
2019-04-30T09:21:59.107Z,100496.53
2019-04-30T09:24:32.316Z,100498.15
2019-04-30T09:27:10.587Z,100493.00
2019-04-30T09:29:44.532Z,100485.11
2019-04-30T09:32:16.536Z,100498.08
2019-04-30T09:34:49.370Z,100496.62
2019-04-30T09:37:22.163Z,100490.71
2019-04-30T09:39:54.784Z,100487.84
2019-04-30T09:42:29.490Z,100488.13
2019-04-30T09:45:02.955Z,100485.97
2019-04-30T09:47:35.740Z,100482.89
2019-04-30T09:50:09.186Z,100498.58
2019-04-30T09:52:42.340Z,100480.13
2019-04-30T09:55:15.628Z,100479.09
2019-04-30T09:57:48.809Z,100478.80
2019-04-30T10:00:22.099Z,100476.05
2019-04-30T10:02:55.671Z,100476.28
2019-04-30T10:05:29.372Z,100479.95
2019-04-30T10:08:02.199Z,100475.91
2019-04-30T10:10:36.504Z,100483.28
2019-04-30T10:13:09.295Z,100476.15
2019-04-30T10:15:43.511Z,100470.44
2019-04-30T10:18:16.787Z,100473.80
2019-04-30T10:20:49.420Z,100470.56
2019-04-30T10:23:22.150Z,100468.80
2019-04-30T10:25:55.951Z,100467.70
2019-04-30T10:28:29.172Z,100460.95
2019-04-30T10:31:03.771Z,100464.84
2019-04-30T10:33:38.470Z,100457.97
2019-04-30T10:36:11.481Z,100458.68
2019-04-30T10:38:44.166Z,100456.48
2019-04-30T10:41:18.619Z,100458.82
2019-04-30T10:43:51.158Z,100450.41
2019-04-30T10:46:23.793Z,100449.88
2019-04-30T10:48:56.637Z,100446.52
2019-04-30T10:51:29.312Z,100429.57
2019-04-30T10:54:02.034Z,100429.83
2019-04-30T10:56:35.692Z,100433.39
2019-04-30T10:59:09.135Z,100439.85
2019-04-30T11:01:41.769Z,100436.64
2019-04-30T11:04:18.122Z,100434.56
2019-04-30T11:06:50.814Z,100437.86
2019-04-30T11:09:24.925Z,100430.81
2019-04-30T11:11:59.360Z,100435.09
2019-04-30T11:14:32.339Z,100437.89
2019-04-30T11:17:05.290Z,100430.75
2019-04-30T11:19:39.285Z,100430.65
2019-04-30T11:22:12.238Z,100433.05
2019-04-30T11:24:56.736Z,100433.64
2019-04-30T11:27:20.683Z,100419.36
2019-04-30T11:30:00.565Z,100417.77
2019-04-30T11:32:28.801Z,100412.95
2019-04-30T11:35:01.841Z,100418.45
2019-04-30T11:37:34.467Z,100418.58
2019-04-30T11:40:10.884Z,100415.87
2019-04-30T11:42:43.578Z,100419.75
2019-04-30T11:45:21.989Z,100414.20
2019-04-30T11:47:54.675Z,100403.54
2019-04-30T11:50:30.011Z,100407.94
2019-04-30T11:53:19.471Z,100408.27
2019-04-30T11:55:36.790Z,100410.24
2019-04-30T11:58:21.086Z,100407.81
2019-04-30T12:00:45.428Z,100404.36
2019-04-30T12:03:19.283Z,100395.41
2019-04-30T12:05:52.349Z,100404.47
2019-04-30T12:08:29.448Z,100405.34
2019-04-30T12:11:03.682Z,100404.74
2019-04-30T12:13:36.506Z,100396.95
2019-04-30T12:16:10.000Z,100397.58
2019-04-30T12:18:42.683Z,100387.27
2019-04-30T12:21:15.362Z,100393.30
2019-04-30T12:23:48.041Z,100393.88
2019-04-30T12:26:20.766Z,100381.31
2019-04-30T12:28:53.515Z,100381.31
2019-04-30T12:31:26.290Z,100377.05
2019-04-30T12:33:58.975Z,100380.75
2019-04-30T12:36:33.080Z,100373.80
2019-04-30T12:39:07.133Z,100377.80
2019-04-30T12:41:40.710Z,100380.06
2019-04-30T12:44:13.574Z,100380.09
2019-04-30T12:46:46.361Z,100379.95
2019-04-30T12:49:19.146Z,100380.30
2019-04-30T12:51:51.610Z,100380.30
2019-04-30T12:54:25.941Z,100387.14
2019-04-30T12:57:10.805Z,100377.58
2019-04-30T12:59:42.131Z,100369.23
2019-04-30T13:02:14.924Z,100368.28
2019-04-30T13:04:49.323Z,100368.67
2019-04-30T13:07:22.457Z,100360.54
2019-04-30T13:09:56.203Z,100352.70
2019-04-30T13:12:29.745Z,100354.38
2019-04-30T13:15:02.940Z,100345.99
2019-04-30T13:17:36.068Z,100355.33
2019-04-30T13:20:18.624Z,100349.70
2019-04-30T13:22:44.386Z,100348.90
2019-04-30T13:25:28.180Z,100348.85
2019-04-30T13:27:53.319Z,100343.83
2019-04-30T13:30:30.182Z,100338.14
2019-04-30T13:33:22.620Z,100320.61
2019-04-30T13:35:55.992Z,100334.39
2019-04-30T13:38:44.938Z,100344.70
2019-04-30T13:41:14.315Z,100341.97
2019-04-30T13:43:53.802Z,100338.86
2019-04-30T13:46:28.367Z,100332.77
2019-04-30T13:49:00.802Z,100337.61
2019-04-30T13:51:33.491Z,100339.07
2019-04-30T13:54:06.158Z,100329.88
2019-04-30T13:56:39.696Z,100332.81
2019-04-30T13:59:12.593Z,100333.17
2019-04-30T14:01:45.221Z,100325.55
2019-04-30T14:04:19.537Z,100321.14
2019-04-30T14:07:09.926Z,100323.45
2019-04-30T14:09:42.721Z,100313.59
2019-04-30T14:12:15.393Z,100320.33
2019-04-30T14:14:49.349Z,100319.34
2019-04-30T14:17:22.176Z,100320.59
2019-04-30T14:19:56.001Z,100318.78
2019-04-30T14:22:28.620Z,100309.67
2019-04-30T14:25:01.293Z,100322.45
2019-04-30T14:27:33.925Z,100310.00
2019-04-30T14:30:09.290Z,100312.01
2019-04-30T14:32:42.262Z,100317.59
2019-04-30T14:35:15.965Z,100319.47
2019-04-30T14:37:49.578Z,100314.42
2019-04-30T14:40:23.641Z,100322.22
2019-04-30T14:42:59.598Z,100316.91
2019-04-30T14:45:34.605Z,100307.80
2019-04-30T14:48:12.909Z,100309.00
2019-04-30T14:50:46.337Z,100306.95
2019-04-30T14:53:26.464Z,100300.53
2019-04-30T14:56:09.498Z,100308.09
2019-04-30T14:58:55.640Z,100294.75
2019-04-30T15:01:30.782Z,100302.09
2019-04-30T15:04:03.873Z,100305.03
2019-04-30T15:06:36.543Z,100296.03
2019-04-30T15:09:11.075Z,100295.89
2019-04-30T15:11:43.759Z,100303.36
2019-04-30T15:14:17.242Z,100301.89
2019-04-30T15:16:50.687Z,100295.56
2019-04-30T15:19:23.431Z,100297.31
2019-04-30T15:21:56.122Z,100304.73
2019-04-30T15:24:39.357Z,100301.22
2019-04-30T15:27:12.388Z,100302.39
2019-04-30T15:29:45.103Z,100293.80
2019-04-30T15:32:18.572Z,100291.92
2019-04-30T15:34:51.693Z,100293.73
2019-04-30T15:37:24.358Z,100293.11
2019-04-30T15:39:59.044Z,100291.63
2019-04-30T15:42:31.357Z,100287.73
2019-04-30T15:45:04.034Z,100287.17
2019-04-30T15:47:38.592Z,100283.81
2019-04-30T15:50:13.029Z,100282.70
2019-04-30T15:52:46.405Z,100282.91
2019-04-30T15:55:19.045Z,100282.69
2019-04-30T15:57:56.138Z,100287.87
2019-04-30T16:00:31.295Z,100283.25
2019-04-30T16:03:11.954Z,100279.57
2019-04-30T16:05:46.210Z,100283.65
2019-04-30T16:08:23.251Z,100278.67
2019-04-30T16:11:01.033Z,100276.16
2019-04-30T16:13:39.458Z,100283.63
2019-04-30T16:16:13.283Z,100278.80
2019-04-30T16:18:50.762Z,100278.16
2019-04-30T16:21:23.435Z,100275.42
2019-04-30T16:23:56.108Z,100271.00
2019-04-30T16:26:29.132Z,100265.80
2019-04-30T16:29:02.824Z,100268.21
2019-04-30T16:31:35.615Z,100276.91
2019-04-30T16:34:08.809Z,100271.05
2019-04-30T16:36:41.578Z,100269.47
2019-04-30T16:39:14.356Z,100263.39
2019-04-30T16:41:49.566Z,100262.64
2019-04-30T16:44:22.084Z,100259.63
2019-04-30T16:46:54.762Z,100252.97
2019-04-30T16:49:29.007Z,100272.41
2019-04-30T16:52:01.973Z,100263.15
2019-04-30T16:54:34.645Z,100259.06
2019-04-30T16:57:07.531Z,100267.45
2019-04-30T16:59:43.360Z,100252.89
2019-04-30T17:02:16.058Z,100252.89
2019-04-30T17:04:59.177Z,100262.22
2019-04-30T17:07:40.145Z,100259.48
2019-04-30T17:10:18.868Z,100262.12
2019-04-30T17:13:09.313Z,100258.83
2019-04-30T17:15:44.293Z,100269.97
2019-04-30T17:18:18.928Z,100269.77
2019-04-30T17:20:52.062Z,100269.77
2019-04-30T17:23:24.739Z,100270.29
2019-04-30T17:25:57.327Z,100274.70
2019-04-30T17:28:30.046Z,100272.78
2019-04-30T17:31:02.728Z,100273.71
2019-04-30T17:33:35.412Z,100276.52
2019-04-30T17:36:08.724Z,100278.25
2019-04-30T17:38:42.414Z,100276.34
2019-04-30T17:41:15.098Z,100284.46
2019-04-30T17:43:49.454Z,100289.35
2019-04-30T17:46:22.136Z,100278.71
2019-04-30T17:48:54.860Z,100280.95
2019-04-30T17:51:27.543Z,100280.22
2019-04-30T17:54:13.401Z,100285.74
2019-04-30T17:56:48.265Z,100287.81
2019-04-30T17:59:20.939Z,100281.84
2019-04-30T18:01:55.267Z,100287.41
2019-04-30T18:04:29.553Z,100287.59
2019-04-30T18:07:02.463Z,100291.29
2019-04-30T18:09:36.274Z,100286.17
2019-04-30T18:12:09.356Z,100291.57
2019-04-30T18:14:42.487Z,100301.45
2019-04-30T18:17:15.222Z,100295.44
2019-04-30T18:19:49.765Z,100294.69
2019-04-30T18:22:29.348Z,100301.05
2019-04-30T18:25:06.761Z,100299.34
2019-04-30T18:27:45.954Z,100310.95
2019-04-30T18:30:19.012Z,100302.70
2019-04-30T18:32:52.902Z,100303.27
2019-04-30T18:35:25.668Z,100306.00
2019-04-30T18:37:58.659Z,100305.21
2019-04-30T18:40:31.862Z,100313.70
2019-04-30T18:43:04.552Z,100319.97
2019-04-30T18:45:39.594Z,100320.45
2019-04-30T18:48:12.667Z,100321.39
2019-04-30T18:50:45.291Z,100328.43
2019-04-30T18:53:20.266Z,100328.91
2019-04-30T18:55:53.063Z,100336.00
2019-04-30T18:58:37.561Z,100342.74
2019-04-30T19:01:00.069Z,100348.45
2019-04-30T19:03:32.685Z,100348.48
2019-04-30T19:06:08.615Z,100352.06
2019-04-30T19:08:51.386Z,100349.43
2019-04-30T19:11:32.899Z,100345.51
2019-04-30T19:14:09.973Z,100354.33
2019-04-30T19:17:00.170Z,100357.87
2019-04-30T19:19:50.191Z,100349.98
2019-04-30T19:22:22.923Z,100353.95
2019-04-30T19:24:58.763Z,100355.28
2019-04-30T19:27:29.928Z,100352.66
2019-04-30T19:30:02.723Z,100364.57
2019-04-30T19:32:36.102Z,100364.16
2019-04-30T19:35:11.040Z,100354.95
2019-04-30T19:37:43.716Z,100354.50
2019-04-30T19:40:16.450Z,100350.54
2019-04-30T19:42:50.915Z,100355.41
2019-04-30T19:45:23.445Z,100354.08
2019-04-30T19:47:56.378Z,100358.04
2019-04-30T19:50:29.057Z,100353.61
2019-04-30T19:53:01.736Z,100363.72
2019-04-30T19:55:34.530Z,100364.17
2019-04-30T19:58:07.905Z,100362.39
2019-04-30T20:00:40.603Z,100361.50
2019-04-30T20:03:13.216Z,100361.48
2019-04-30T20:05:45.962Z,100361.92
2019-04-30T20:08:19.843Z,100360.56
2019-04-30T20:10:52.753Z,100361.42
2019-04-30T20:13:33.899Z,100364.45
2019-04-30T20:15:59.741Z,100356.95
2019-04-30T20:18:32.370Z,100362.66
2019-04-30T20:21:06.751Z,100360.87
2019-04-30T20:23:39.418Z,100366.14
2019-04-30T20:26:12.098Z,100366.56
2019-04-30T20:28:44.977Z,100362.13
2019-04-30T20:31:19.047Z,100371.78
2019-04-30T20:33:53.713Z,100373.45
2019-04-30T20:36:26.558Z,100373.44
2019-04-30T20:38:58.926Z,100372.98
2019-04-30T20:41:33.186Z,100371.23
2019-04-30T20:44:06.374Z,100371.63
2019-04-30T20:46:39.401Z,100367.64
2019-04-30T20:49:12.448Z,100368.52
2019-04-30T20:51:54.905Z,100367.59
2019-04-30T20:54:19.450Z,100370.20
2019-04-30T20:56:52.841Z,100373.68
2019-04-30T20:59:25.540Z,100368.38
2019-04-30T21:01:58.406Z,100377.53
2019-04-30T21:04:32.425Z,100378.80
2019-04-30T21:07:05.041Z,100378.28
2019-04-30T21:09:37.778Z,100378.20
2019-04-30T21:12:10.568Z,100383.01
2019-04-30T21:14:43.223Z,100386.89
2019-04-30T21:17:16.765Z,100378.52
2019-04-30T21:19:49.425Z,100388.55
2019-04-30T21:22:22.955Z,100391.96
2019-04-30T21:24:56.114Z,100387.91
2019-04-30T21:27:30.461Z,100391.29
2019-04-30T21:30:03.803Z,100387.27
2019-04-30T21:32:55.234Z,100390.29
2019-04-30T21:35:27.606Z,100393.27
2019-04-30T21:38:02.251Z,100387.94
2019-04-30T21:40:36.691Z,100394.00
2019-04-30T21:43:09.226Z,100389.94
2019-04-30T21:45:41.917Z,100394.69
2019-04-30T21:48:14.588Z,100391.08
2019-04-30T21:50:49.598Z,100387.48
2019-04-30T21:53:21.595Z,100385.69
2019-04-30T21:55:54.258Z,100386.45
2019-04-30T21:58:29.053Z,100381.57
2019-04-30T22:01:05.470Z,100385.42
2019-04-30T22:03:39.570Z,100382.75
2019-04-30T22:06:12.364Z,100380.92
2019-04-30T22:08:45.142Z,100389.16
2019-04-30T22:11:19.633Z,100386.90
2019-04-30T22:13:52.229Z,100389.85
2019-04-30T22:16:25.114Z,100387.55
2019-04-30T22:18:58.519Z,100383.55
2019-04-30T22:21:31.205Z,100378.67
2019-04-30T22:24:03.814Z,100381.23
2019-04-30T22:26:37.773Z,100377.67
2019-04-30T22:29:11.168Z,100371.42
2019-04-30T22:31:43.862Z,100379.25
2019-04-30T22:34:16.651Z,100377.50
2019-04-30T22:36:50.423Z,100380.96
2019-04-30T22:39:29.939Z,100380.92
2019-04-30T22:42:32.047Z,100381.80
2019-04-30T22:45:08.719Z,100376.63
2019-04-30T22:47:41.498Z,100368.33
2019-04-30T22:50:15.094Z,100372.74
2019-04-30T22:52:47.869Z,100367.13
2019-04-30T22:55:21.267Z,100365.82
2019-04-30T22:57:54.456Z,100363.23
2019-04-30T23:00:37.538Z,100358.84
2019-04-30T23:03:11.810Z,100359.67
2019-04-30T23:05:45.217Z,100359.67
2019-04-30T23:08:17.986Z,100350.53
2019-04-30T23:10:51.073Z,100356.64
2019-04-30T23:13:24.072Z,100354.42
2019-04-30T23:15:57.458Z,100347.92
2019-04-30T23:18:32.356Z,100350.49
2019-04-30T23:21:07.432Z,100339.16
2019-04-30T23:23:40.321Z,100339.16
2019-04-30T23:26:13.201Z,100339.53
2019-04-30T23:28:45.867Z,100337.36
2019-04-30T23:31:18.548Z,100339.98
2019-04-30T23:33:51.636Z,100336.91
2019-04-30T23:36:24.260Z,100323.32
2019-04-30T23:38:57.301Z,100314.97
2019-04-30T23:41:30.302Z,100315.91
2019-04-30T23:44:02.974Z,100318.95
2019-04-30T23:46:35.666Z,100309.25
2019-04-30T23:49:08.443Z,100320.59
2019-04-30T23:51:41.053Z,100313.55
2019-04-30T23:54:14.930Z,100304.75
2019-04-30T23:56:47.536Z,100302.59
2019-04-30T23:59:20.211Z,100296.03
